Time;durP1;ratioP1;P1;durP2;ratioP2;P2;SDS_P1;SDS_P2;PMS_P1;PMS_P2;Temp;Humidity;BMP_temperature;BMP_pressure;BME280_temperature;BME280_humidity;BME280_pressure;Samples;Min_cycle;Max_cycle;Signal;HPM_P1;HPM_P2
2022/06/22 00:01:13;;;;;;;;;;;14.40;99.90;;;;;;5114796;28;20351;-69
2022/06/22 00:03:39;;;;;;;;;;;14.40;99.90;;;;;;5114571;28;19953;-69
2022/06/22 00:06:04;;;;;;;;;;;14.40;99.90;;;;;;5114634;28;19916;-70
2022/06/22 00:08:33;;;;;;;;;;;14.30;99.90;;;;;;5114880;28;20435;-70
2022/06/22 00:11:20;;;;;;;;;;;14.30;99.90;;;;;;5114874;28;19916;-70
2022/06/22 00:13:55;;;;;;;;;;;14.30;99.90;;;;;;5114217;28;19919;-70
2022/06/22 00:16:31;;;;;;;;;;;14.30;99.90;;;;;;5096079;28;20382;-71
2022/06/22 00:18:57;;;;;;;;;;;14.30;99.90;;;;;;5114302;28;19912;-70
2022/06/22 00:21:27;;;;;;;;;;;14.30;99.90;;;;;;5114547;28;19950;-71
2022/06/22 00:23:54;;;;;;;;;;;14.20;99.90;;;;;;5114203;28;19908;-71
2022/06/22 00:26:23;;;;;;;;;;;14.20;99.90;;;;;;5113948;28;19908;-71
2022/06/22 00:29:05;;;;;;;;;;;14.20;99.90;;;;;;5114058;28;19969;-71
2022/06/22 00:31:34;;;;;;;;;;;14.20;99.90;;;;;;5113834;28;20332;-71
2022/06/22 00:34:04;;;;;;;;;;;14.20;99.90;;;;;;5114133;28;20361;-70
2022/06/22 00:36:33;;;;;;;;;;;14.20;99.90;;;;;;5095605;28;19915;-70
2022/06/22 00:39:15;;;;;;;;;;;14.10;99.90;;;;;;5114076;28;19931;-71
2022/06/22 00:41:40;;;;;;;;;;;14.00;99.90;;;;;;5113782;28;20360;-70
2022/06/22 00:44:07;;;;;;;;;;;13.90;99.90;;;;;;5113724;28;19920;-71
2022/06/22 00:46:33;;;;;;;;;;;13.80;99.90;;;;;;5113778;28;19907;-70
2022/06/22 00:49:06;;;;;;;;;;;13.70;99.90;;;;;;5113870;28;20247;-70
2022/06/22 00:51:35;;;;;;;;;;;13.70;99.90;;;;;;5113698;28;19998;-70
2022/06/22 00:54:03;;;;;;;;;;;13.70;99.90;;;;;;5112795;28;19955;-70
2022/06/22 00:56:32;;;;;;;;;;;13.70;99.90;;;;;;5113671;28;19919;-71
2022/06/22 00:59:00;;;;;;;;;;;13.60;99.90;;;;;;5113756;28;19907;-71
2022/06/22 01:01:38;;;;;;;;;;;13.60;99.90;;;;;;5113502;28;19912;-70
2022/06/22 01:04:06;;;;;;;;;;;13.60;99.90;;;;;;5094914;28;19919;-71
2022/06/22 01:06:32;;;;;;;;;;;13.60;99.90;;;;;;5113451;28;19995;-71
2022/06/22 01:09:20;;;;;;;;;;;13.60;99.90;;;;;;5113316;28;20049;-72
2022/06/22 01:14:34;;;;;;;;;;;13.60;99.90;;;;;;5113466;28;20287;-71
2022/06/22 01:17:00;;;;;;;;;;;13.60;99.90;;;;;;5113305;28;19912;-72
2022/06/22 01:19:41;;;;;;;;;;;13.60;99.90;;;;;;5113279;28;20373;-71
2022/06/22 01:22:14;;;;;;;;;;;13.60;99.90;;;;;;5113166;28;20085;-71
2022/06/22 01:25:06;;;;;;;;;;;13.50;99.90;;;;;;5113125;28;20015;-71
2022/06/22 01:27:36;;;;;;;;;;;13.50;99.90;;;;;;5081490;28;19911;-71
2022/06/22 01:30:18;;;;;;;;;;;13.40;99.90;;;;;;5112723;28;19922;-70
2022/06/22 01:32:44;;;;;;;;;;;13.40;99.90;;;;;;5112932;28;19995;-70
2022/06/22 01:35:15;;;;;;;;;;;13.50;99.90;;;;;;5112972;28;20324;-69
2022/06/22 01:37:44;;;;;;;;;;;13.60;99.90;;;;;;5113032;28;20403;-70
2022/06/22 01:40:21;;;;;;;;;;;13.60;99.90;;;;;;5112586;28;20006;-70
2022/06/22 01:42:53;;;;;;;;;;;13.60;99.90;;;;;;5112708;28;20423;-69
2022/06/22 01:45:23;;;;;;;;;;;13.50;99.90;;;;;;5112848;28;20001;-69
2022/06/22 01:47:54;;;;;;;;;;;13.60;99.90;;;;;;5094219;28;19918;-70
2022/06/22 01:50:31;;;;;;;;;;;13.50;99.90;;;;;;5112862;28;19912;-70
2022/06/22 01:53:15;;;;;;;;;;;13.50;99.90;;;;;;5112502;28;19960;-71
2022/06/22 01:55:46;;;;;;;;;;;13.50;99.90;;;;;;5112962;28;19919;-71
2022/06/22 01:58:15;;;;;;;;;;;13.50;99.90;;;;;;5094197;28;19916;-70
2022/06/22 02:00:43;;;;;;;;;;;13.50;99.90;;;;;;5112598;28;19969;-70
2022/06/22 02:03:11;;;;;;;;;;;13.50;99.90;;;;;;5112467;28;20383;-70
2022/06/22 02:05:41;;;;;;;;;;;13.50;99.90;;;;;;5111672;28;19915;-70
2022/06/22 02:08:06;;;;;;;;;;;13.40;99.90;;;;;;5112169;28;19911;-70
2022/06/22 02:10:32;;;;;;;;;;;13.40;99.90;;;;;;5112140;28;20264;-70
2022/06/22 02:13:00;;;;;;;;;;;13.40;99.90;;;;;;5093765;28;19912;-71
2022/06/22 02:15:38;;;;;;;;;;;13.40;99.90;;;;;;5112368;28;19972;-70
2022/06/22 02:18:04;;;;;;;;;;;13.40;99.90;;;;;;5112209;28;19912;-71
2022/06/22 02:20:31;;;;;;;;;;;13.40;99.90;;;;;;5112453;28;19943;-70
2022/06/22 02:23:20;;;;;;;;;;;13.40;99.90;;;;;;5111929;28;19911;-71
2022/06/22 02:25:50;;;;;;;;;;;13.40;99.90;;;;;;5100671;28;19976;-71
2022/06/22 02:28:15;;;;;;;;;;;13.40;99.90;;;;;;5111891;28;19966;-71
2022/06/22 02:30:42;;;;;;;;;;;13.40;99.90;;;;;;5111892;28;20030;-71
2022/06/22 02:33:08;;;;;;;;;;;13.40;99.90;;;;;;5112082;28;20438;-71
2022/06/22 02:35:34;;;;;;;;;;;13.40;99.90;;;;;;5112100;28;20163;-70
2022/06/22 02:38:02;;;;;;;;;;;13.40;99.90;;;;;;5111757;28;20300;-70
2022/06/22 02:40:30;;;;;;;;;;;13.40;99.90;;;;;;5111950;28;19938;-71
2022/06/22 02:45:40;;;;;;;;;;;13.30;99.90;;;;;;5112079;28;20045;-71
2022/06/22 02:48:12;;;;;;;;;;;13.30;99.90;;;;;;5112029;28;19924;-71
2022/06/22 02:50:48;;;;;;;;;;;13.30;99.90;;;;;;5093384;28;19920;-71
2022/06/22 02:53:28;;;;;;;;;;;13.30;99.90;;;;;;5111650;28;19931;-70
2022/06/22 02:55:54;;;;;;;;;;;13.30;99.90;;;;;;5111492;28;20002;-71
2022/06/22 02:58:25;;;;;;;;;;;13.40;99.90;;;;;;5111486;28;19992;-70
2022/06/22 03:00:51;;;;;;;;;;;13.50;99.90;;;;;;5093304;28;19958;-71
2022/06/22 03:03:17;;;;;;;;;;;13.60;99.90;;;;;;5111465;28;19911;-70
2022/06/22 03:05:44;;;;;;;;;;;13.50;99.90;;;;;;5111766;28;19916;-71
2022/06/22 03:08:11;;;;;;;;;;;13.20;99.90;;;;;;5093169;28;19908;-71
2022/06/22 03:10:52;;;;;;;;;;;13.30;99.90;;;;;;5093533;28;19927;-70
2022/06/22 03:13:20;;;;;;;;;;;13.30;99.90;;;;;;5111662;28;20283;-71
2022/06/22 03:15:46;;;;;;;;;;;13.40;99.90;;;;;;5111848;28;20053;-70
2022/06/22 03:18:17;;;;;;;;;;;13.40;99.90;;;;;;5114303;28;20010;-71
2022/06/22 03:20:53;;;;;;;;;;;13.50;99.90;;;;;;5115855;28;20004;-71
2022/06/22 03:23:24;;;;;;;;;;;13.50;99.90;;;;;;5115642;28;20406;-71
2022/06/22 03:25:52;;;;;;;;;;;13.40;99.90;;;;;;5115666;28;19920;-70
2022/06/22 03:28:34;;;;;;;;;;;13.50;99.90;;;;;;5115319;28;19931;-70
2022/06/22 03:31:08;;;;;;;;;;;13.40;99.90;;;;;;5115289;28;20028;-71
2022/06/22 03:33:44;;;;;;;;;;;13.40;99.90;;;;;;5115346;28;19908;-70
2022/06/22 03:36:16;;;;;;;;;;;13.50;99.90;;;;;;5115072;28;19916;-71
2022/06/22 03:38:46;;;;;;;;;;;13.50;99.90;;;;;;5115454;28;20270;-71
2022/06/22 03:41:13;;;;;;;;;;;13.60;99.90;;;;;;5096718;28;19916;-71
2022/06/22 03:43:41;;;;;;;;;;;13.60;99.90;;;;;;5114992;28;19919;-71
2022/06/22 03:46:14;;;;;;;;;;;13.70;99.90;;;;;;5115207;28;19915;-71
2022/06/22 03:48:42;;;;;;;;;;;13.80;99.90;;;;;;5114797;28;19912;-70
2022/06/22 03:51:20;;;;;;;;;;;13.80;99.90;;;;;;5114807;28;19934;-70
2022/06/22 03:53:51;;;;;;;;;;;13.80;99.90;;;;;;5115067;28;19920;-71
2022/06/22 03:56:19;;;;;;;;;;;13.90;99.90;;;;;;5114791;28;19908;-71
2022/06/22 03:58:46;;;;;;;;;;;13.90;99.90;;;;;;5114730;28;20363;-71
2022/06/22 04:01:12;;;;;;;;;;;14.00;99.90;;;;;;5114618;28;20368;-71
2022/06/22 04:03:38;;;;;;;;;;;13.90;99.90;;;;;;5114520;28;19912;-71
2022/06/22 04:06:03;;;;;;;;;;;13.90;99.90;;;;;;5114975;28;20260;-70
2022/06/22 04:08:29;;;;;;;;;;;13.90;99.90;;;;;;5096288;28;19912;-70
2022/06/22 04:11:13;;;;;;;;;;;13.90;99.90;;;;;;5114865;28;20349;-70
2022/06/22 04:13:44;;;;;;;;;;;14.00;99.90;;;;;;5114448;28;20363;-71
2022/06/22 04:16:13;;;;;;;;;;;14.00;99.90;;;;;;5114183;28;20359;-70
2022/06/22 04:18:41;;;;;;;;;;;14.00;99.90;;;;;;5114379;28;19908;-70
2022/06/22 04:21:09;;;;;;;;;;;14.00;99.90;;;;;;5114526;28;19923;-70
2022/06/22 04:23:40;;;;;;;;;;;14.00;99.90;;;;;;5114167;28;19929;-70
2022/06/22 04:26:25;;;;;;;;;;;14.10;99.90;;;;;;5114008;28;19925;-70
2022/06/22 04:28:58;;;;;;;;;;;14.10;99.90;;;;;;5112370;28;19915;-70
2022/06/22 04:31:29;;;;;;;;;;;14.10;99.90;;;;;;5095319;28;19919;-70
2022/06/22 04:33:58;;;;;;;;;;;14.10;99.90;;;;;;5114005;28;19919;-70
2022/06/22 04:36:27;;;;;;;;;;;14.10;99.90;;;;;;5113873;28;20291;-70
2022/06/22 04:39:01;;;;;;;;;;;14.10;99.90;;;;;;5113916;28;20355;-70
2022/06/22 04:41:27;;;;;;;;;;;14.10;99.90;;;;;;5114032;28;20010;-70
2022/06/22 04:43:54;;;;;;;;;;;14.10;99.90;;;;;;5113670;28;20018;-70
2022/06/22 04:46:27;;;;;;;;;;;14.10;99.90;;;;;;5095312;28;19999;-70
2022/06/22 04:48:54;;;;;;;;;;;14.20;99.90;;;;;;5113565;28;20480;-70
2022/06/22 04:51:21;;;;;;;;;;;14.30;99.90;;;;;;5113574;28;19908;-70
2022/06/22 04:53:55;;;;;;;;;;;14.50;99.90;;;;;;5113451;28;19984;-70
2022/06/22 04:56:28;;;;;;;;;;;14.40;99.90;;;;;;5113601;28;19915;-70
2022/06/22 04:58:54;;;;;;;;;;;14.40;99.90;;;;;;5113527;28;19920;-70
2022/06/22 05:01:32;;;;;;;;;;;14.40;99.90;;;;;;5113712;28;20355;-69
2022/06/22 05:04:00;;;;;;;;;;;14.50;99.90;;;;;;5113027;28;19992;-70
2022/06/22 05:06:33;;;;;;;;;;;14.50;99.90;;;;;;5113428;28;20398;-70
2022/06/22 05:09:04;;;;;;;;;;;14.50;99.90;;;;;;5113529;28;19908;-70
2022/06/22 05:11:32;;;;;;;;;;;14.50;99.90;;;;;;5113146;28;19908;-70
2022/06/22 05:13:59;;;;;;;;;;;14.60;99.90;;;;;;5113009;28;19915;-69
2022/06/22 05:16:26;;;;;;;;;;;14.60;99.90;;;;;;5113160;28;19973;-71
2022/06/22 05:18:53;;;;;;;;;;;14.60;99.90;;;;;;5112901;28;19908;-71
2022/06/22 05:21:32;;;;;;;;;;;14.60;99.90;;;;;;5094540;28;19908;-71
2022/06/22 05:23:59;;;;;;;;;;;14.70;99.90;;;;;;5112651;28;19916;-71
2022/06/22 05:26:26;;;;;;;;;;;14.70;99.90;;;;;;5113127;28;20002;-71
2022/06/22 05:29:12;;;;;;;;;;;14.70;99.90;;;;;;5112877;28;19908;-71
2022/06/22 05:31:39;;;;;;;;;;;14.60;99.90;;;;;;5112197;28;20011;-71
2022/06/22 05:34:25;;;;;;;;;;;14.70;99.90;;;;;;5113054;28;19923;-71
2022/06/22 05:36:57;;;;;;;;;;;14.70;99.90;;;;;;5112603;28;20294;-71
2022/06/22 05:39:22;;;;;;;;;;;14.70;99.90;;;;;;5112922;28;20283;-71
2022/06/22 05:41:48;;;;;;;;;;;14.80;99.90;;;;;;5113116;28;19908;-70
2022/06/22 05:44:15;;;;;;;;;;;14.70;99.90;;;;;;5112909;28;19927;-70
2022/06/22 05:46:44;;;;;;;;;;;14.60;99.90;;;;;;5112555;28;19914;-71
2022/06/22 05:49:13;;;;;;;;;;;14.60;99.90;;;;;;5112551;28;19924;-71
2022/06/22 05:51:50;;;;;;;;;;;14.60;99.90;;;;;;5112597;28;19946;-71
2022/06/22 05:54:26;;;;;;;;;;;14.70;99.90;;;;;;5112597;28;19951;-71
2022/06/22 05:57:12;;;;;;;;;;;14.80;99.90;;;;;;5112644;28;19908;-71
2022/06/22 05:59:46;;;;;;;;;;;14.90;99.90;;;;;;5111567;28;19928;-71
2022/06/22 06:02:26;;;;;;;;;;;14.80;99.90;;;;;;5112345;28;19960;-72
2022/06/22 06:04:57;;;;;;;;;;;14.80;99.90;;;;;;5112343;28;19924;-71
2022/06/22 06:07:22;;;;;;;;;;;14.80;99.90;;;;;;5112359;28;19974;-71
2022/06/22 06:09:48;;;;;;;;;;;14.80;99.90;;;;;;5112297;28;19930;-71
2022/06/22 06:12:45;;;;;;;;;;;14.80;99.90;;;;;;5112227;28;19915;-71
2022/06/22 06:15:12;;;;;;;;;;;14.80;99.90;;;;;;5049336;28;20010;-71
2022/06/22 06:17:40;;;;;;;;;;;14.80;99.90;;;;;;5112142;28;19960;-71
2022/06/22 06:20:07;;;;;;;;;;;14.30;99.90;;;;;;5112288;28;19990;-71
2022/06/22 06:22:36;;;;;;;;;;;14.70;99.90;;;;;;5093562;28;19912;-71
2022/06/22 06:27:56;;;;;;;;;;;14.90;99.90;;;;;;5112106;28;20303;-71
2022/06/22 06:30:25;;;;;;;;;;;15.00;99.90;;;;;;5111467;28;19916;-71
2022/06/22 06:32:54;;;;;;;;;;;15.00;99.90;;;;;;5111896;28;20386;-71
2022/06/22 06:35:19;;;;;;;;;;;15.10;99.90;;;;;;5112383;28;20355;-71
2022/06/22 06:38:01;;;;;;;;;;;15.00;99.90;;;;;;5112184;28;19957;-71
2022/06/22 06:40:47;;;;;;;;;;;15.00;99.90;;;;;;5112500;28;20317;-71
2022/06/22 06:43:28;;;;;;;;;;;15.00;99.90;;;;;;5111029;28;19908;-71
2022/06/22 06:45:56;;;;;;;;;;;15.00;99.90;;;;;;5112100;28;19927;-71
2022/06/22 06:48:24;;;;;;;;;;;15.10;99.90;;;;;;5093160;28;20003;-71
2022/06/22 06:50:51;;;;;;;;;;;15.20;99.90;;;;;;5112044;28;19918;-71
2022/06/22 06:53:36;;;;;;;;;;;15.10;99.90;;;;;;5117047;28;20002;-71
2022/06/22 06:56:22;;;;;;;;;;;15.10;99.90;;;;;;5118795;28;20281;-71
2022/06/22 06:58:53;;;;;;;;;;;15.10;99.90;;;;;;5117674;28;19912;-70
2022/06/22 07:01:20;;;;;;;;;;;14.90;99.90;;;;;;5099956;28;19915;-71
2022/06/22 07:03:46;;;;;;;;;;;14.80;99.90;;;;;;5118185;28;19912;-71
2022/06/22 07:06:12;;;;;;;;;;;14.80;99.90;;;;;;5118325;28;19994;-71
2022/06/22 07:08:39;;;;;;;;;;;14.80;99.90;;;;;;5118274;28;20386;-71
2022/06/22 07:11:10;;;;;;;;;;;14.70;99.90;;;;;;5118376;28;19966;-71
2022/06/22 07:13:38;;;;;;;;;;;14.70;99.90;;;;;;5118255;28;19934;-71
2022/06/22 07:16:12;;;;;;;;;;;14.60;99.90;;;;;;5118638;28;20014;-71
2022/06/22 07:18:41;;;;;;;;;;;14.60;99.90;;;;;;5118485;28;20319;-71
2022/06/22 07:21:06;;;;;;;;;;;14.60;99.90;;;;;;5099877;28;19920;-71
2022/06/22 07:23:34;;;;;;;;;;;14.60;99.90;;;;;;5118106;28;19907;-71
2022/06/22 07:26:02;;;;;;;;;;;14.60;99.90;;;;;;5118068;28;20010;-71
2022/06/22 07:28:36;;;;;;;;;;;14.60;99.90;;;;;;5118335;28;20354;-71
2022/06/22 07:31:04;;;;;;;;;;;14.60;99.90;;;;;;5118104;28;20398;-71
2022/06/22 07:33:40;;;;;;;;;;;14.70;99.90;;;;;;5099638;28;19908;-71
2022/06/22 07:36:18;;;;;;;;;;;14.70;99.90;;;;;;5117942;28;19926;-70
2022/06/22 07:38:43;;;;;;;;;;;14.70;99.90;;;;;;5099477;28;19955;-71
2022/06/22 07:41:19;;;;;;;;;;;14.70;99.90;;;;;;5117868;28;19942;-71
2022/06/22 07:44:06;;;;;;;;;;;14.70;99.90;;;;;;5117970;28;20470;-71
2022/06/22 07:46:50;;;;;;;;;;;14.80;99.90;;;;;;5118280;28;19915;-71
2022/06/22 07:49:18;;;;;;;;;;;15.00;99.90;;;;;;5118136;28;19920;-71
2022/06/22 07:51:46;;;;;;;;;;;15.10;99.90;;;;;;5118107;28;20359;-71
2022/06/22 07:54:15;;;;;;;;;;;15.20;99.90;;;;;;5117742;28;19919;-71
2022/06/22 07:56:52;;;;;;;;;;;15.30;99.90;;;;;;5118043;28;20018;-71
2022/06/22 07:59:21;;;;;;;;;;;15.40;99.90;;;;;;5117769;28;19916;-71
2022/06/22 08:01:47;;;;;;;;;;;15.50;99.90;;;;;;5117922;28;20006;-71
2022/06/22 08:04:18;;;;;;;;;;;15.40;99.90;;;;;;5115630;28;19923;-71
2022/06/22 08:06:47;;;;;;;;;;;15.50;99.90;;;;;;5114727;28;19960;-71
2022/06/22 08:09:15;;;;;;;;;;;15.50;99.90;;;;;;5114676;28;19919;-71
2022/06/22 08:11:44;;;;;;;;;;;15.50;99.90;;;;;;5114614;28;19908;-71
2022/06/22 08:14:13;;;;;;;;;;;15.70;99.90;;;;;;5114651;28;19919;-71
2022/06/22 08:16:47;;;;;;;;;;;16.20;99.90;;;;;;5114339;28;20385;-70
2022/06/22 08:19:13;;;;;;;;;;;16.40;99.90;;;;;;5114627;28;19920;-70
2022/06/22 08:21:41;;;;;;;;;;;16.50;99.90;;;;;;5114237;28;19987;-70
2022/06/22 08:24:09;;;;;;;;;;;16.60;99.90;;;;;;5114170;28;19920;-70
2022/06/22 08:26:35;;;;;;;;;;;16.50;99.90;;;;;;5114105;28;19907;-71
2022/06/22 08:29:01;;;;;;;;;;;16.40;99.90;;;;;;5114473;28;19919;-71
2022/06/22 08:31:31;;;;;;;;;;;16.40;99.90;;;;;;5114146;28;20406;-71
2022/06/22 08:33:58;;;;;;;;;;;16.50;99.90;;;;;;5114213;28;19983;-71
2022/06/22 08:36:26;;;;;;;;;;;16.60;99.90;;;;;;5113888;28;19907;-70
2022/06/22 08:39:10;;;;;;;;;;;16.80;99.90;;;;;;5113995;28;20163;-70
2022/06/22 08:41:41;;;;;;;;;;;16.90;99.90;;;;;;5113883;28;20014;-70
2022/06/22 08:44:14;;;;;;;;;;;17.10;99.90;;;;;;5113939;28;19998;-70
2022/06/22 08:47:12;;;;;;;;;;;17.10;99.90;;;;;;5113900;28;20414;-71
2022/06/22 08:49:40;;;;;;;;;;;17.20;99.90;;;;;;5068533;28;19916;-71
2022/06/22 08:52:12;;;;;;;;;;;17.30;99.90;;;;;;5113641;28;19908;-71
2022/06/22 08:54:50;;;;;;;;;;;17.30;99.90;;;;;;5095537;28;19916;-71
2022/06/22 08:57:38;;;;;;;;;;;17.30;99.90;;;;;;5113607;28;19908;-71
2022/06/22 09:00:07;;;;;;;;;;;17.50;99.90;;;;;;5095385;28;20395;-70
2022/06/22 09:02:44;;;;;;;;;;;17.60;99.90;;;;;;5113575;28;19953;-71
2022/06/22 09:05:15;;;;;;;;;;;17.30;99.90;;;;;;5113701;28;19926;-71
2022/06/22 09:07:59;;;;;;;;;;;16.80;99.90;;;;;;5113614;28;19908;-71
2022/06/22 09:10:44;;;;;;;;;;;16.40;99.90;;;;;;5113693;28;19920;-71
2022/06/22 09:13:35;;;;;;;;;;;16.00;99.90;;;;;;5113390;28;19915;-71
2022/06/22 09:16:19;;;;;;;;;;;16.10;99.90;;;;;;5113273;28;19972;-71
2022/06/22 09:19:07;;;;;;;;;;;16.40;99.90;;;;;;5113057;28;19912;-71
2022/06/22 09:21:52;;;;;;;;;;;17.00;99.90;;;;;;5094410;28;20015;-71
2022/06/22 09:24:40;;;;;;;;;;;17.40;99.90;;;;;;5094723;28;19920;-71
2022/06/22 09:27:10;;;;;;;;;;;17.30;99.90;;;;;;5101836;28;19946;-71
2022/06/22 09:29:40;;;;;;;;;;;17.10;99.90;;;;;;5112954;28;20294;-71
2022/06/22 09:32:30;;;;;;;;;;;16.80;99.90;;;;;;5112303;28;19927;-71
2022/06/22 09:34:59;;;;;;;;;;;16.80;99.90;;;;;;5112784;28;20011;-70
2022/06/22 09:37:30;;;;;;;;;;;16.80;99.90;;;;;;5112623;28;19947;-71
2022/06/22 09:40:17;;;;;;;;;;;16.90;99.90;;;;;;5113114;28;19931;-70
2022/06/22 09:43:00;;;;;;;;;;;17.10;99.90;;;;;;5112722;28;19977;-70
2022/06/22 09:45:29;;;;;;;;;;;17.10;99.90;;;;;;5094403;28;19927;-70
2022/06/22 09:47:57;;;;;;;;;;;17.40;99.90;;;;;;5112370;28;19984;-70
2022/06/22 09:50:26;;;;;;;;;;;17.70;99.90;;;;;;5094258;28;19922;-71
2022/06/22 09:53:07;;;;;;;;;;;18.00;99.90;;;;;;5112574;28;19953;-69
2022/06/22 09:58:40;;;;;;;;;;;18.60;99.90;;;;;;5112477;28;20423;-70
2022/06/22 10:01:12;;;;;;;;;;;18.60;99.90;;;;;;5112023;28;19923;-70
2022/06/22 10:03:46;;;;;;;;;;;18.40;99.90;;;;;;5112156;28;20394;-70
2022/06/22 10:06:30;;;;;;;;;;;18.20;99.90;;;;;;5112144;28;19922;-70
2022/06/22 10:09:03;;;;;;;;;;;18.40;99.90;;;;;;5112140;28;19911;-70
2022/06/22 10:11:38;;;;;;;;;;;18.90;99.90;;;;;;5112121;28;19935;-69
2022/06/22 10:14:21;;;;;;;;;;;19.50;99.90;;;;;;5112579;28;19923;-70
2022/06/22 10:16:59;;;;;;;;;;;20.20;99.90;;;;;;5112039;28;19911;-70
2022/06/22 10:19:43;;;;;;;;;;;20.00;99.90;;;;;;5112403;28;19916;-70
2022/06/22 10:22:29;;;;;;;;;;;21.20;99.90;;;;;;5111992;28;19957;-69
2022/06/22 10:25:05;;;;;;;;;;;21.60;99.90;;;;;;5112099;28;20252;-70
2022/06/22 10:27:37;;;;;;;;;;;21.90;99.90;;;;;;5111111;28;19915;-70
2022/06/22 10:30:20;;;;;;;;;;;22.30;99.90;;;;;;5112201;28;19920;-70
2022/06/22 10:32:48;;;;;;;;;;;22.70;99.90;;;;;;5111714;28;20291;-70
2022/06/22 10:35:14;;;;;;;;;;;22.70;99.90;;;;;;5111617;28;19912;-70
2022/06/22 10:37:43;;;;;;;;;;;22.50;99.90;;;;;;5111687;28;19912;-70
2022/06/22 10:46:09;;;;;;;;;;;22.70;99.70;;;;;;5112611;28;20052;-70
2022/06/22 10:48:37;;;;;;;;;;;22.70;99.00;;;;;;5112035;28;19912;-71
2022/06/22 10:51:15;;;;;;;;;;;22.60;98.60;;;;;;5112182;28;19912;-71
2022/06/22 10:53:56;;;;;;;;;;;22.60;98.60;;;;;;5093036;28;20287;-72
2022/06/22 10:56:33;;;;;;;;;;;22.70;99.10;;;;;;5111481;28;19919;-71
2022/06/22 10:59:01;;;;;;;;;;;22.90;97.90;;;;;;5111395;28;19908;-70
2022/06/22 11:01:39;;;;;;;;;;;23.00;97.90;;;;;;5093557;28;20066;-70
2022/06/22 11:04:26;;;;;;;;;;;22.90;98.00;;;;;;5111238;28;19942;-70
2022/06/22 11:07:10;;;;;;;;;;;23.00;98.60;;;;;;5111547;28;19919;-71
2022/06/22 11:09:48;;;;;;;;;;;23.00;97.20;;;;;;5111558;28;19912;-71
2022/06/22 11:12:40;;;;;;;;;;;22.90;96.70;;;;;;5111374;28;19952;-71
2022/06/22 11:15:24;;;;;;;;;;;22.70;97.50;;;;;;5111772;28;19912;-71
2022/06/22 11:18:02;;;;;;;;;;;22.30;97.80;;;;;;5111453;28;19919;-71
2022/06/22 11:20:33;;;;;;;;;;;22.10;97.90;;;;;;5111758;28;19960;-72
2022/06/22 11:23:02;;;;;;;;;;;21.60;97.90;;;;;;5111220;28;19919;-72
2022/06/22 11:31:27;;;;;;;;;;;20.40;99.10;;;;;;5111144;28;19931;-72
2022/06/22 11:34:07;;;;;;;;;;;20.00;99.60;;;;;;5111183;28;19916;-72
2022/06/22 11:36:33;;;;;;;;;;;20.30;99.50;;;;;;5111366;28;19908;-72
2022/06/22 11:38:58;;;;;;;;;;;20.70;97.90;;;;;;5094905;28;19957;-71
2022/06/22 11:41:36;;;;;;;;;;;20.80;98.00;;;;;;5115121;28;19914;-71
2022/06/22 11:44:11;;;;;;;;;;;20.70;97.50;;;;;;5114846;28;19927;-71
2022/06/22 11:46:41;;;;;;;;;;;20.30;97.50;;;;;;5114975;28;19911;-71
2022/06/22 11:49:19;;;;;;;;;;;20.60;98.20;;;;;;5115414;28;20006;-71
2022/06/22 11:51:51;;;;;;;;;;;19.60;97.80;;;;;;5114735;28;19908;-72
2022/06/22 11:54:25;;;;;;;;;;;19.30;98.60;;;;;;5115397;28;19927;-71
2022/06/22 11:56:56;;;;;;;;;;;19.50;97.50;;;;;;5096790;28;20249;-69
2022/06/22 11:59:25;;;;;;;;;;;20.20;96.90;;;;;;5114668;28;20374;-70
2022/06/22 12:01:56;;;;;;;;;;;21.00;96.00;;;;;;5111578;28;19919;-70
2022/06/22 12:04:21;;;;;;;;;;;21.80;95.10;;;;;;5097391;28;19927;-70
2022/06/22 12:06:53;;;;;;;;;;;22.50;94.80;;;;;;5094102;28;19916;-70
2022/06/22 12:09:18;;;;;;;;;;;23.00;93.90;;;;;;5093323;28;20375;-69
2022/06/22 12:11:44;;;;;;;;;;;23.40;91.60;;;;;;5108696;28;20114;-68
2022/06/22 12:17:02;;;;;;;;;;;23.40;91.40;;;;;;5107915;28;19923;-69
2022/06/22 12:19:36;;;;;;;;;;;23.40;91.70;;;;;;5112172;28;19924;-69
2022/06/22 12:22:11;;;;;;;;;;;23.30;91.80;;;;;;5089394;28;19916;-69
2022/06/22 12:24:44;;;;;;;;;;;23.10;91.00;;;;;;5111956;28;20378;-64
2022/06/22 12:27:16;;;;;;;;;;;23.00;90.50;;;;;;5112696;28;20356;-69
2022/06/22 12:29:48;;;;;;;;;;;22.80;90.40;;;;;;5111194;28;19961;-69
2022/06/22 12:32:23;;;;;;;;;;;22.80;90.10;;;;;;5102355;28;19980;-70
2022/06/22 12:34:52;;;;;;;;;;;22.70;90.50;;;;;;5113269;28;19920;-69
2022/06/22 12:37:26;;;;;;;;;;;22.60;92.00;;;;;;5113526;28;19908;-70
2022/06/22 12:39:54;;;;;;;;;;;22.30;93.10;;;;;;5111719;28;19916;-70
2022/06/22 12:42:39;;;;;;;;;;;22.30;93.20;;;;;;5106065;28;19923;-69
2022/06/22 12:45:14;;;;;;;;;;;22.30;91.50;;;;;;5092433;27;20431;-69
2022/06/22 12:47:43;;;;;;;;;;;22.20;91.90;;;;;;5092428;28;19908;-69
2022/06/22 12:50:14;;;;;;;;;;;22.30;92.50;;;;;;5091244;28;20396;-70
2022/06/22 12:52:45;;;;;;;;;;;22.20;92.00;;;;;;5110488;28;20367;-71
2022/06/22 12:55:13;;;;;;;;;;;22.30;92.30;;;;;;5112474;28;20002;-69
2022/06/22 12:57:41;;;;;;;;;;;22.10;91.90;;;;;;5112777;28;19907;-69
2022/06/22 13:00:14;;;;;;;;;;;22.00;91.70;;;;;;5078806;28;19916;-69
2022/06/22 13:02:41;;;;;;;;;;;21.70;91.60;;;;;;5102526;28;19912;-69
2022/06/22 13:05:11;;;;;;;;;;;21.40;91.10;;;;;;5100347;28;20324;-69
2022/06/22 13:07:40;;;;;;;;;;;21.30;91.80;;;;;;5109022;28;19923;-69
2022/06/22 13:10:06;;;;;;;;;;;21.30;91.90;;;;;;5100681;27;20450;-71
2022/06/22 13:12:36;;;;;;;;;;;21.40;92.10;;;;;;5101981;27;19986;-70
2022/06/22 13:15:05;;;;;;;;;;;21.40;91.10;;;;;;5085572;28;19983;-71
2022/06/22 13:17:39;;;;;;;;;;;21.50;92.00;;;;;;5097199;28;19911;-70
2022/06/22 13:20:05;;;;;;;;;;;21.60;92.00;;;;;;5099986;28;19923;-70
2022/06/22 13:22:46;;;;;;;;;;;21.60;91.80;;;;;;5092125;28;19908;-69
2022/06/22 13:25:30;;;;;;;;;;;21.60;91.90;;;;;;5091469;28;19927;-70
2022/06/22 13:28:17;;;;;;;;;;;21.50;92.60;;;;;;5105090;28;19912;-63
2022/06/22 13:30:46;;;;;;;;;;;21.30;92.40;;;;;;5109192;28;20002;-70
2022/06/22 13:33:11;;;;;;;;;;;21.30;92.30;;;;;;5110495;28;20313;-63
2022/06/22 13:35:56;;;;;;;;;;;21.10;92.70;;;;;;5111884;28;19920;-70
2022/06/22 13:38:28;;;;;;;;;;;20.90;93.00;;;;;;5110404;28;19972;-72
2022/06/22 13:41:06;;;;;;;;;;;20.70;93.30;;;;;;5108901;28;19919;-67
2022/06/22 13:43:46;;;;;;;;;;;20.50;93.90;;;;;;5110921;28;19980;-71
2022/06/22 13:46:34;;;;;;;;;;;20.40;94.30;;;;;;5111020;28;20101;-70
2022/06/22 13:49:09;;;;;;;;;;;20.40;93.60;;;;;;5079212;28;20314;-67
2022/06/22 13:51:57;;;;;;;;;;;20.50;93.20;;;;;;5095123;28;19912;-72
2022/06/22 13:54:31;;;;;;;;;;;20.50;92.90;;;;;;5104629;28;19978;-69
2022/06/22 13:57:20;;;;;;;;;;;20.50;93.60;;;;;;5110100;28;20082;-68
2022/06/22 14:00:01;;;;;;;;;;;20.50;93.90;;;;;;5095022;28;19936;-73
2022/06/22 14:02:45;;;;;;;;;;;20.40;93.20;;;;;;5101397;27;19912;-69
2022/06/22 14:05:13;;;;;;;;;;;20.30;93.20;;;;;;5103020;28;19923;-69
2022/06/22 14:07:43;;;;;;;;;;;20.20;93.30;;;;;;5104968;28;20030;-66
2022/06/22 14:10:20;;;;;;;;;;;20.10;93.60;;;;;;5108122;28;19920;-69
2022/06/22 14:12:51;;;;;;;;;;;20.10;93.20;;;;;;5090293;28;19916;-68
2022/06/22 14:15:29;;;;;;;;;;;20.10;93.20;;;;;;5096720;28;19920;-70
2022/06/22 14:17:58;;;;;;;;;;;19.90;94.10;;;;;;5101297;27;20020;-69
2022/06/22 14:20:27;;;;;;;;;;;19.70;95.20;;;;;;5102892;27;20358;-69
2022/06/22 14:22:58;;;;;;;;;;;19.60;96.10;;;;;;5108708;28;20042;-69
2022/06/22 14:25:23;;;;;;;;;;;19.60;96.00;;;;;;5096089;28;19984;-64
2022/06/22 14:27:49;;;;;;;;;;;19.50;96.80;;;;;;5098021;28;19912;-69
2022/06/22 14:30:19;;;;;;;;;;;19.40;96.40;;;;;;5103131;27;19985;-70
2022/06/22 14:33:04;;;;;;;;;;;19.50;97.20;;;;;;5122516;27;19912;-70
2022/06/22 14:35:34;;;;;;;;;;;19.60;98.50;;;;;;5100053;27;19942;-67
2022/06/22 14:38:00;;;;;;;;;;;19.50;98.70;;;;;;5089458;28;19918;-69
2022/06/22 14:40:51;;;;;;;;;;;19.40;98.70;;;;;;5090683;28;19912;-69
2022/06/22 14:43:17;;;;;;;;;;;19.30;98.90;;;;;;5075931;28;19966;-69
2022/06/22 14:45:46;;;;;;;;;;;19.20;98.80;;;;;;5090765;28;19967;-69
2022/06/22 14:48:31;;;;;;;;;;;19.10;99.30;;;;;;5107727;28;19934;-69
2022/06/22 14:51:06;;;;;;;;;;;19.20;99.80;;;;;;5080293;28;19955;-69
2022/06/22 14:53:40;;;;;;;;;;;19.30;99.90;;;;;;5099413;28;19912;-69
2022/06/22 14:56:10;;;;;;;;;;;19.40;99.80;;;;;;5090116;28;20425;-69
2022/06/22 14:58:47;;;;;;;;;;;19.50;97.70;;;;;;5089819;28;19912;-69
2022/06/22 15:01:23;;;;;;;;;;;19.50;96.80;;;;;;5089826;28;20441;-69
2022/06/22 15:04:03;;;;;;;;;;;19.60;96.20;;;;;;5089761;28;20382;-69
2022/06/22 15:06:40;;;;;;;;;;;19.70;96.40;;;;;;5089465;28;20374;-69
2022/06/22 15:09:13;;;;;;;;;;;19.70;95.70;;;;;;5089633;28;19916;-66
2022/06/22 15:14:39;;;;;;;;;;;19.60;95.50;;;;;;5111705;28;20516;-69
2022/06/22 15:17:11;;;;;;;;;;;19.60;96.60;;;;;;5097662;28;19912;-70